createdAt,value
2019-03-03T00:01:36.634Z,100501.53
2019-03-03T00:04:45.126Z,100503.79
2019-03-03T00:08:04.098Z,100499.38
2019-03-03T00:11:12.841Z,100497.71
2019-03-03T00:14:21.373Z,100495.63
2019-03-03T00:17:30.070Z,100498.63
2019-03-03T00:20:38.678Z,100503.21
2019-03-03T00:23:47.445Z,100507.94
2019-03-03T00:27:07.409Z,100497.77
2019-03-03T00:30:16.029Z,100503.30
2019-03-03T00:33:24.925Z,100496.06
2019-03-03T00:36:51.968Z,100492.52
2019-03-03T00:40:20.556Z,100486.44
2019-03-03T00:43:40.139Z,100481.28
2019-03-03T00:47:11.494Z,100480.03
2019-03-03T00:50:36.502Z,100462.98
2019-03-03T00:54:00.941Z,100452.48
2019-03-03T00:58:01.435Z,100440.56
2019-03-03T01:01:30.032Z,100446.63
2019-03-03T01:04:55.172Z,100440.66
2019-03-03T01:08:21.521Z,100426.76
2019-03-03T01:11:49.013Z,100422.34
2019-03-03T01:15:08.297Z,100422.96
2019-03-03T01:18:43.255Z,100428.46
2019-03-03T01:22:29.559Z,100418.45
2019-03-03T01:25:38.230Z,100413.20
2019-03-03T01:28:46.969Z,100412.95
2019-03-03T01:31:55.806Z,100416.56
2019-03-03T01:35:04.396Z,100411.75
2019-03-03T01:38:13.094Z,100399.01
2019-03-03T01:41:21.841Z,100396.87
2019-03-03T01:44:30.438Z,100392.66
2019-03-03T01:47:39.134Z,100386.02
2019-03-03T01:50:47.729Z,100379.23
2019-03-03T01:53:56.335Z,100368.16
2019-03-03T01:57:05.042Z,100362.50
2019-03-03T02:00:28.300Z,100354.91
2019-03-03T02:03:37.100Z,100361.59
2019-03-03T02:06:45.591Z,100340.12
2019-03-03T02:09:54.216Z,100341.09
2019-03-03T02:13:02.980Z,100338.44
2019-03-03T02:16:12.177Z,100318.86
2019-03-03T02:19:20.748Z,100324.22
2019-03-03T02:22:31.816Z,100317.80
2019-03-03T02:25:40.380Z,100308.84
2019-03-03T02:28:49.124Z,100320.52
2019-03-03T02:31:57.715Z,100313.50
2019-03-03T02:35:06.819Z,100316.02
2019-03-03T02:38:15.376Z,100307.30
2019-03-03T02:41:23.985Z,100313.12
2019-03-03T02:44:32.598Z,100303.60
2019-03-03T02:47:41.277Z,100293.11
2019-03-03T02:51:00.052Z,100286.64
2019-03-03T02:54:08.559Z,100294.52
2019-03-03T02:57:17.275Z,100288.89
2019-03-03T03:00:25.963Z,100278.09
2019-03-03T03:03:34.597Z,100264.97
2019-03-03T03:06:48.882Z,100257.69
2019-03-03T03:10:09.048Z,100256.56
2019-03-03T03:13:36.567Z,100252.32
2019-03-03T03:16:54.008Z,100256.45
2019-03-03T03:20:40.819Z,100244.04
2019-03-03T03:24:14.066Z,100242.64
2019-03-03T03:27:59.705Z,100236.73
2019-03-03T03:31:27.187Z,100237.56
2019-03-03T03:34:40.437Z,100234.72
2019-03-03T03:38:06.669Z,100233.64
2019-03-03T03:41:23.488Z,100225.09
2019-03-03T03:44:47.063Z,100224.50
2019-03-03T03:48:12.765Z,100213.74
2019-03-03T03:51:55.053Z,100218.05
2019-03-03T03:55:45.147Z,100207.83
2019-03-03T03:59:18.475Z,100211.52
2019-03-03T04:02:52.191Z,100195.39
2019-03-03T04:06:25.472Z,100180.73
2019-03-03T04:09:38.744Z,100172.58
2019-03-03T04:13:10.801Z,100175.36
2019-03-03T04:16:24.675Z,100180.23
2019-03-03T04:20:06.469Z,100164.89
2019-03-03T04:23:32.916Z,100159.01
2019-03-03T04:26:57.094Z,100158.50
2019-03-03T04:30:46.211Z,100149.34
2019-03-03T04:34:29.913Z,100145.15
2019-03-03T04:37:49.092Z,100157.02
2019-03-03T04:41:24.225Z,100137.71
2019-03-03T04:44:51.785Z,100138.07
2019-03-03T04:48:28.590Z,100141.03
2019-03-03T04:51:45.185Z,100126.20
2019-03-03T04:55:06.498Z,100114.68
2019-03-03T04:59:04.575Z,100109.66
2019-03-03T05:02:29.904Z,100107.17
2019-03-03T05:05:51.130Z,100103.81
2019-03-03T05:09:09.549Z,100115.77
2019-03-03T05:12:40.541Z,100102.34
2019-03-03T05:16:11.140Z,100094.54
2019-03-03T05:19:34.717Z,100089.81
2019-03-03T05:22:57.944Z,100092.02
2019-03-03T05:26:06.597Z,100086.57
2019-03-03T05:29:15.183Z,100082.42
2019-03-03T05:32:23.803Z,100095.05
2019-03-03T05:35:32.415Z,100077.02
2019-03-03T05:38:41.095Z,100083.93
2019-03-03T05:41:49.708Z,100089.59
2019-03-03T05:45:08.636Z,100072.13
2019-03-03T05:48:17.300Z,100068.02
2019-03-03T05:51:25.799Z,100069.09
2019-03-03T05:54:35.636Z,100062.59
2019-03-03T05:57:44.195Z,100065.97
2019-03-03T06:01:03.048Z,100056.70
2019-03-03T06:04:11.166Z,100061.41
2019-03-03T06:07:19.830Z,100063.25
2019-03-03T06:10:28.525Z,100063.42
2019-03-03T06:13:37.121Z,100062.30
2019-03-03T06:16:55.922Z,100063.89
2019-03-03T06:20:05.022Z,100057.82
2019-03-03T06:23:13.531Z,100080.66
2019-03-03T06:26:22.123Z,100049.64
2019-03-03T06:29:30.710Z,100060.36
2019-03-03T06:32:39.234Z,100058.47
2019-03-03T06:35:48.824Z,100058.00
2019-03-03T06:38:57.495Z,100062.90
2019-03-03T06:42:05.984Z,100053.45
2019-03-03T06:45:14.938Z,100062.36
2019-03-03T06:48:23.442Z,100054.35
2019-03-03T06:51:32.076Z,100059.47
2019-03-03T06:54:40.765Z,100057.94
2019-03-03T06:57:49.445Z,100050.63
2019-03-03T07:00:58.128Z,100052.16
2019-03-03T07:04:16.985Z,100048.86
2019-03-03T07:07:25.651Z,100045.50
2019-03-03T07:10:34.234Z,100059.41
2019-03-03T07:13:42.904Z,100048.80
2019-03-03T07:16:51.594Z,100052.33
2019-03-03T07:20:00.312Z,100060.64
2019-03-03T07:23:09.170Z,100066.73
2019-03-03T07:26:17.683Z,100062.41
2019-03-03T07:29:24.873Z,100064.00
2019-03-03T07:32:36.148Z,100058.47
2019-03-03T07:35:44.762Z,100061.18
2019-03-03T07:38:53.376Z,100060.34
2019-03-03T07:42:01.998Z,100065.07
2019-03-03T07:45:11.729Z,100071.72
2019-03-03T07:48:30.745Z,100072.69
2019-03-03T07:51:39.235Z,100070.26
2019-03-03T07:54:47.870Z,100077.34
2019-03-03T07:57:56.598Z,100082.75
2019-03-03T08:01:06.468Z,100076.20
2019-03-03T08:04:15.119Z,100071.37
2019-03-03T08:07:34.077Z,100071.27
2019-03-03T08:10:42.713Z,100071.80
2019-03-03T08:13:51.276Z,100061.66
2019-03-03T08:16:59.912Z,100060.29
2019-03-03T08:20:09.355Z,100062.84
2019-03-03T08:23:17.906Z,100060.78
2019-03-03T08:26:26.411Z,100067.09
2019-03-03T08:29:35.051Z,100076.94
2019-03-03T08:32:43.638Z,100066.50
2019-03-03T08:35:52.284Z,100063.01
2019-03-03T08:39:11.049Z,100066.39
2019-03-03T08:42:44.223Z,100067.09
2019-03-03T08:46:31.148Z,100070.98
2019-03-03T08:50:19.734Z,100058.05
2019-03-03T08:53:56.297Z,100064.08
2019-03-03T08:57:42.313Z,100071.62
2019-03-03T09:00:59.911Z,100068.77
2019-03-03T09:04:21.897Z,100075.05
2019-03-03T09:07:49.408Z,100083.38
2019-03-03T09:11:14.550Z,100078.75
2019-03-03T09:14:45.038Z,100081.52
2019-03-03T09:18:07.159Z,100076.16
2019-03-03T09:21:29.815Z,100083.59
2019-03-03T09:25:00.145Z,100082.83
2019-03-03T09:28:31.038Z,100088.31
2019-03-03T09:31:59.588Z,100090.45
2019-03-03T09:35:27.070Z,100083.41
2019-03-03T09:38:47.446Z,100088.54
2019-03-03T09:42:24.292Z,100072.24
2019-03-03T09:45:46.013Z,100091.83
2019-03-03T09:49:19.478Z,100089.53
2019-03-03T09:52:55.821Z,100078.78
2019-03-03T09:56:11.921Z,100068.97
2019-03-03T09:59:35.508Z,100083.61
2019-03-03T10:02:58.682Z,100087.87
2019-03-03T10:06:32.366Z,100091.30
2019-03-03T10:10:09.044Z,100088.70
2019-03-03T10:13:35.287Z,100091.84
2019-03-03T10:16:59.985Z,100088.34
2019-03-03T10:20:44.391Z,100092.89
2019-03-03T10:24:11.908Z,100096.60
2019-03-03T10:27:31.366Z,100100.72
2019-03-03T10:31:11.675Z,100104.00
2019-03-03T10:34:38.423Z,100098.33
2019-03-03T10:38:08.089Z,100104.83
2019-03-03T10:41:35.638Z,100104.94
2019-03-03T10:45:05.992Z,100086.66
2019-03-03T10:48:33.560Z,100090.77
2019-03-03T10:52:16.401Z,100097.27
2019-03-03T10:55:58.915Z,100101.35
2019-03-03T10:59:36.374Z,100107.56
2019-03-03T11:03:02.730Z,100105.69
2019-03-03T11:06:29.723Z,100100.41
2019-03-03T11:10:16.076Z,100098.93
2019-03-03T11:14:03.461Z,100102.68
2019-03-03T11:17:47.523Z,100100.25
2019-03-03T11:21:03.465Z,100106.39
2019-03-03T11:24:24.038Z,100102.86
2019-03-03T11:27:54.400Z,100105.81
2019-03-03T11:31:13.647Z,100102.67
2019-03-03T11:34:41.203Z,100103.22
2019-03-03T11:37:53.490Z,100107.14
2019-03-03T11:41:27.263Z,100097.52
2019-03-03T11:44:43.145Z,100098.61
2019-03-03T11:48:35.624Z,100098.44
2019-03-03T11:52:01.655Z,100097.34
2019-03-03T11:55:35.428Z,100096.60
2019-03-03T11:59:02.878Z,100087.03
2019-03-03T12:02:53.897Z,100078.77
2019-03-03T12:06:23.348Z,100084.34
2019-03-03T12:09:56.570Z,100087.13
2019-03-03T12:13:33.309Z,100077.82
2019-03-03T12:16:52.695Z,100068.91
2019-03-03T12:20:24.518Z,100076.16
2019-03-03T12:23:41.895Z,100069.47
2019-03-03T12:27:07.875Z,100072.23
2019-03-03T12:30:38.464Z,100078.45
2019-03-03T12:34:19.016Z,100076.70
2019-03-03T12:37:35.530Z,100073.73
2019-03-03T12:41:21.041Z,100070.94
2019-03-03T12:44:35.168Z,100065.09
2019-03-03T12:48:02.656Z,100056.27
2019-03-03T12:51:21.609Z,100046.24
2019-03-03T12:54:47.694Z,100049.41
2019-03-03T12:58:17.182Z,100051.73
2019-03-03T13:01:56.266Z,100044.01
2019-03-03T13:05:21.339Z,100042.62
2019-03-03T13:08:48.037Z,100033.13
2019-03-03T13:12:08.818Z,100040.46
2019-03-03T13:15:47.954Z,100025.70
2019-03-03T13:19:24.591Z,100031.83
2019-03-03T13:23:06.762Z,100028.67
2019-03-03T13:26:24.077Z,100023.85
2019-03-03T13:29:51.796Z,100012.97
2019-03-03T13:33:17.917Z,100009.08
2019-03-03T13:36:51.617Z,100007.03
2019-03-03T13:40:25.154Z,100008.52
2019-03-03T13:43:34.266Z,100000.60
2019-03-03T13:46:52.813Z,99994.73
2019-03-03T13:50:01.516Z,99994.45
2019-03-03T13:53:10.123Z,99980.89
2019-03-03T13:56:18.647Z,99981.36
2019-03-03T13:59:27.436Z,99977.45
2019-03-03T14:02:37.541Z,99975.95
2019-03-03T14:05:46.090Z,99971.42
2019-03-03T14:09:07.671Z,99971.01
2019-03-03T14:12:16.197Z,99965.33
2019-03-03T14:15:24.762Z,99958.75
2019-03-03T14:18:33.546Z,99959.22
2019-03-03T14:21:52.354Z,99952.17
2019-03-03T14:25:00.944Z,99941.94
2019-03-03T14:28:09.818Z,99936.19
2019-03-03T14:31:18.515Z,99933.50
2019-03-03T14:34:27.141Z,99931.52
2019-03-03T14:37:35.922Z,99931.64
2019-03-03T14:40:44.602Z,99929.51
2019-03-03T14:43:53.250Z,99933.77
2019-03-03T14:47:01.881Z,99923.36
2019-03-03T14:50:12.572Z,99924.45
2019-03-03T14:53:21.131Z,99915.91
2019-03-03T14:56:29.831Z,99915.55
2019-03-03T14:59:38.768Z,99908.50
2019-03-03T15:02:47.420Z,99896.81
2019-03-03T15:05:56.104Z,99896.44
2019-03-03T15:09:24.823Z,99890.14
2019-03-03T15:12:33.541Z,99889.05
2019-03-03T15:15:42.225Z,99881.69
2019-03-03T15:18:50.973Z,99881.52
2019-03-03T15:21:59.701Z,99876.12
2019-03-03T15:25:09.325Z,99881.26
2019-03-03T15:28:18.099Z,99866.68
2019-03-03T15:31:26.858Z,99871.25
2019-03-03T15:34:35.787Z,99855.05
2019-03-03T15:37:44.429Z,99852.80
2019-03-03T15:40:53.098Z,99854.50
2019-03-03T15:44:12.325Z,99847.05
2019-03-03T15:47:31.371Z,99842.67
2019-03-03T15:50:39.949Z,99836.64
2019-03-03T15:53:48.686Z,99825.31
2019-03-03T15:56:59.439Z,99828.95
2019-03-03T16:00:19.646Z,99827.06
2019-03-03T16:03:28.287Z,99821.30
2019-03-03T16:06:36.950Z,99817.89
2019-03-03T16:09:45.539Z,99812.48
2019-03-03T16:12:54.167Z,99805.56
2019-03-03T16:16:03.526Z,99808.42
2019-03-03T16:19:14.064Z,99803.23
2019-03-03T16:22:33.199Z,99799.95
2019-03-03T16:25:41.952Z,99791.34
2019-03-03T16:28:50.630Z,99783.16
2019-03-03T16:31:59.382Z,99788.04
2019-03-03T16:35:08.054Z,99770.66
2019-03-03T16:38:16.989Z,99772.02
2019-03-03T16:41:25.660Z,99771.90
2019-03-03T16:44:34.257Z,99764.34
2019-03-03T16:47:42.939Z,99760.05
2019-03-03T16:50:51.561Z,99761.52
2019-03-03T16:54:00.208Z,99753.81
2019-03-03T16:57:08.943Z,99748.48
2019-03-03T17:00:19.239Z,99747.80
2019-03-03T17:03:38.922Z,99743.08
2019-03-03T17:06:57.909Z,99738.25
2019-03-03T17:10:07.223Z,99732.34
2019-03-03T17:13:15.724Z,99731.61
2019-03-03T17:16:34.734Z,99726.11
2019-03-03T17:19:43.456Z,99716.17
2019-03-03T17:22:52.568Z,99721.29
2019-03-03T17:26:01.180Z,99724.55
2019-03-03T17:29:09.874Z,99703.37
2019-03-03T17:32:18.459Z,99708.58
2019-03-03T17:35:27.067Z,99704.30
2019-03-03T17:38:35.742Z,99704.82
2019-03-03T17:41:44.321Z,99705.86
2019-03-03T17:44:52.797Z,99696.61
2019-03-03T17:48:11.820Z,99690.51
2019-03-03T17:51:20.358Z,99698.52
2019-03-03T17:54:28.854Z,99683.86
2019-03-03T17:57:37.481Z,99692.84
2019-03-03T18:00:46.581Z,99689.59
2019-03-03T18:03:55.371Z,99687.23
2019-03-03T18:07:04.101Z,99685.64
2019-03-03T18:10:13.027Z,99679.52
2019-03-03T18:13:22.019Z,99690.37
2019-03-03T18:16:33.656Z,99674.84
2019-03-03T18:19:46.026Z,99667.31
2019-03-03T18:22:54.853Z,99665.53
2019-03-03T18:26:03.577Z,99648.36
2019-03-03T18:29:12.539Z,99650.26
2019-03-03T18:32:21.140Z,99654.77
2019-03-03T18:35:29.719Z,99651.13
2019-03-03T18:38:38.270Z,99626.98
2019-03-03T18:41:46.786Z,99638.69
2019-03-03T18:45:00.930Z,99641.20
2019-03-03T18:48:10.267Z,99644.41
2019-03-03T18:51:18.772Z,99638.08
2019-03-03T18:54:27.427Z,99624.69
2019-03-03T18:57:36.430Z,99629.23
2019-03-03T19:00:45.022Z,99625.55
2019-03-03T19:03:53.524Z,99619.08
2019-03-03T19:07:02.333Z,99621.63
2019-03-03T19:10:13.994Z,99614.09
2019-03-03T19:13:22.510Z,99612.02
2019-03-03T19:16:41.425Z,99622.03
2019-03-03T19:19:50.214Z,99616.27
2019-03-03T19:22:58.731Z,99604.78
2019-03-03T19:26:07.341Z,99609.03
2019-03-03T19:29:15.916Z,99616.79
2019-03-03T19:32:24.403Z,99611.84
2019-03-03T19:35:43.262Z,99622.73
2019-03-03T19:38:51.853Z,99599.71
2019-03-03T19:42:00.449Z,99598.89
2019-03-03T19:45:17.974Z,99591.47
2019-03-03T19:48:36.955Z,99596.76
2019-03-03T19:51:45.430Z,99597.54
2019-03-03T19:54:53.933Z,99605.55
2019-03-03T19:58:02.480Z,99617.83
2019-03-03T20:01:10.973Z,99597.11
2019-03-03T20:04:29.906Z,99594.46
2019-03-03T20:07:38.575Z,99594.63
2019-03-03T20:10:47.164Z,99590.73
2019-03-03T20:13:55.661Z,99578.72
2019-03-03T20:17:04.186Z,99579.76
2019-03-03T20:20:22.941Z,99579.59
2019-03-03T20:23:31.537Z,99580.16
2019-03-03T20:26:40.029Z,99585.79
2019-03-03T20:29:48.775Z,99572.78
2019-03-03T20:32:57.263Z,99572.78
2019-03-03T20:36:06.285Z,99570.23
2019-03-03T20:39:14.801Z,99568.71
2019-03-03T20:42:33.449Z,99568.76
2019-03-03T20:45:42.060Z,99562.34
2019-03-03T20:48:50.638Z,99557.79
2019-03-03T20:51:59.118Z,99550.47
2019-03-03T20:55:10.989Z,99547.47
2019-03-03T20:58:19.577Z,99548.86
2019-03-03T21:01:38.447Z,99536.84
2019-03-03T21:04:46.966Z,99534.65
2019-03-03T21:07:56.455Z,99524.62
2019-03-03T21:11:15.382Z,99510.89
2019-03-03T21:14:23.892Z,99514.63
2019-03-03T21:17:32.410Z,99500.02
2019-03-03T21:20:40.927Z,99499.76
2019-03-03T21:23:49.433Z,99492.65
2019-03-03T21:27:08.511Z,99484.89
2019-03-03T21:30:19.744Z,99482.72
2019-03-03T21:33:28.294Z,99473.75
2019-03-03T21:36:36.894Z,99478.33
2019-03-03T21:39:55.766Z,99469.23
2019-03-03T21:43:04.359Z,99458.38
2019-03-03T21:46:12.867Z,99452.95
2019-03-03T21:49:21.666Z,99438.08
2019-03-03T21:52:30.294Z,99442.71
2019-03-03T21:55:38.945Z,99444.11
2019-03-03T21:58:47.461Z,99442.14
2019-03-03T22:02:06.284Z,99434.98
2019-03-03T22:05:14.850Z,99440.62
2019-03-03T22:08:23.510Z,99431.88
2019-03-03T22:11:32.009Z,99429.17
2019-03-03T22:14:40.494Z,99419.91
2019-03-03T22:17:59.362Z,99404.75
2019-03-03T22:21:07.981Z,99408.65
2019-03-03T22:24:16.458Z,99410.37
2019-03-03T22:27:25.241Z,99406.52
2019-03-03T22:30:34.580Z,99401.67
2019-03-03T22:33:43.094Z,99402.97
2019-03-03T22:36:51.629Z,99397.99
2019-03-03T22:40:00.351Z,99398.27
2019-03-03T22:43:09.069Z,99391.62
2019-03-03T22:46:17.562Z,99387.14
2019-03-03T22:49:26.245Z,99376.45
2019-03-03T22:52:45.918Z,99377.19
2019-03-03T22:55:54.515Z,99362.16
2019-03-03T22:59:13.183Z,99364.18
2019-03-03T23:02:23.401Z,99367.93
2019-03-03T23:05:45.761Z,99361.26
2019-03-03T23:10:06.055Z,99359.58
2019-03-03T23:13:29.713Z,99346.48
2019-03-03T23:18:00.705Z,99353.91
2019-03-03T23:21:43.518Z,99330.95
2019-03-03T23:25:49.814Z,99320.25
2019-03-03T23:28:58.365Z,99323.43
2019-03-03T23:32:06.896Z,99321.77
2019-03-03T23:35:25.720Z,99312.23
2019-03-03T23:38:34.446Z,99324.55
2019-03-03T23:41:42.961Z,99306.17
2019-03-03T23:44:51.458Z,99292.66
2019-03-03T23:48:00.111Z,99304.54
2019-03-03T23:51:08.697Z,99296.02
2019-03-03T23:54:17.307Z,99287.77
2019-03-03T23:57:36.246Z,99270.78
